sensor_id;sensor_type;location;lat;lon;timestamp;P1;durP1;ratioP1;P2;durP2;ratioP2
28068;SDS011;15382;47.578;8.086;2023-05-10T00:05:23;4.30;;;0.73;;
28068;SDS011;15382;47.578;8.086;2023-05-10T00:15:24;0.70;;;0.50;;
28068;SDS011;15382;47.578;8.086;2023-05-10T00:25:24;2.30;;;0.80;;
28068;SDS011;15382;47.578;8.086;2023-05-10T00:35:25;1.00;;;0.83;;
28068;SDS011;15382;47.578;8.086;2023-05-10T00:45:27;3.05;;;0.70;;
28068;SDS011;15382;47.578;8.086;2023-05-10T01:05:30;1.35;;;0.65;;
28068;SDS011;15382;47.578;8.086;2023-05-10T01:15:31;1.10;;;0.60;;
28068;SDS011;15382;47.578;8.086;2023-05-10T01:35:54;2.95;;;0.60;;
28068;SDS011;15382;47.578;8.086;2023-05-10T01:46:05;4.15;;;0.98;;
28068;SDS011;15382;47.578;8.086;2023-05-10T01:56:14;3.97;;;0.80;;
28068;SDS011;15382;47.578;8.086;2023-05-10T02:06:16;0.93;;;0.60;;
28068;SDS011;15382;47.578;8.086;2023-05-10T02:16:20;0.73;;;0.70;;
28068;SDS011;15382;47.578;8.086;2023-05-10T02:26:25;3.67;;;0.93;;
28068;SDS011;15382;47.578;8.086;2023-05-10T02:36:27;2.65;;;1.15;;
28068;SDS011;15382;47.578;8.086;2023-05-10T02:46:28;1.42;;;0.90;;
28068;SDS011;15382;47.578;8.086;2023-05-10T02:56:31;3.55;;;1.15;;
28068;SDS011;15382;47.578;8.086;2023-05-10T03:06:35;7.07;;;1.70;;
28068;SDS011;15382;47.578;8.086;2023-05-10T03:16:49;5.57;;;1.92;;
28068;SDS011;15382;47.578;8.086;2023-05-10T03:26:58;2.08;;;1.80;;
28068;SDS011;15382;47.578;8.086;2023-05-10T03:37:03;2.53;;;1.80;;
28068;SDS011;15382;47.578;8.086;2023-05-10T03:47:05;3.20;;;1.83;;
28068;SDS011;15382;47.578;8.086;2023-05-10T03:57:07;7.28;;;2.08;;
28068;SDS011;15382;47.578;8.086;2023-05-10T04:17:10;2.63;;;1.47;;
28068;SDS011;15382;47.578;8.086;2023-05-10T04:27:11;3.00;;;2.30;;
28068;SDS011;15382;47.578;8.086;2023-05-10T04:37:12;3.40;;;2.10;;
28068;SDS011;15382;47.578;8.086;2023-05-10T04:47:12;4.53;;;1.17;;
28068;SDS011;15382;47.578;8.086;2023-05-10T04:57:13;1.80;;;1.00;;
28068;SDS011;15382;47.578;8.086;2023-05-10T05:07:14;2.17;;;0.63;;
28068;SDS011;15382;47.578;8.086;2023-05-10T05:17:15;2.30;;;1.00;;
28068;SDS011;15382;47.578;8.086;2023-05-10T05:27:16;1.88;;;0.93;;
28068;SDS011;15382;47.578;8.086;2023-05-10T05:47:19;1.20;;;0.73;;
28068;SDS011;15382;47.578;8.086;2023-05-10T05:57:19;0.40;;;0.40;;
28068;SDS011;15382;47.578;8.086;2023-05-10T06:07:20;2.93;;;0.60;;
28068;SDS011;15382;47.578;8.086;2023-05-10T06:17:21;0.68;;;0.43;;
28068;SDS011;15382;47.578;8.086;2023-05-10T06:27:22;2.17;;;0.70;;
28068;SDS011;15382;47.578;8.086;2023-05-10T06:37:23;4.33;;;1.00;;
28068;SDS011;15382;47.578;8.086;2023-05-10T06:47:24;2.77;;;1.17;;
28068;SDS011;15382;47.578;8.086;2023-05-10T06:57:24;2.87;;;1.60;;
28068;SDS011;15382;47.578;8.086;2023-05-10T07:07:25;4.53;;;1.90;;
28068;SDS011;15382;47.578;8.086;2023-05-10T07:17:26;2.43;;;1.93;;
28068;SDS011;15382;47.578;8.086;2023-05-10T07:27:27;4.20;;;1.80;;
28068;SDS011;15382;47.578;8.086;2023-05-10T07:37:28;11.97;;;2.60;;
28068;SDS011;15382;47.578;8.086;2023-05-10T07:47:28;5.57;;;1.80;;
28068;SDS011;15382;47.578;8.086;2023-05-10T07:57:29;3.47;;;1.27;;
28068;SDS011;15382;47.578;8.086;2023-05-10T08:17:31;3.53;;;1.10;;
28068;SDS011;15382;47.578;8.086;2023-05-10T08:27:32;3.07;;;1.13;;
28068;SDS011;15382;47.578;8.086;2023-05-10T08:37:33;2.53;;;1.10;;
28068;SDS011;15382;47.578;8.086;2023-05-10T08:47:35;7.00;;;1.57;;
28068;SDS011;15382;47.578;8.086;2023-05-10T08:57:38;1.92;;;0.93;;
28068;SDS011;15382;47.578;8.086;2023-05-10T09:07:38;9.70;;;1.37;;
28068;SDS011;15382;47.578;8.086;2023-05-10T09:17:39;5.73;;;1.13;;
28068;SDS011;15382;47.578;8.086;2023-05-10T09:27:43;5.18;;;0.90;;
28068;SDS011;15382;47.578;8.086;2023-05-10T09:37:46;4.10;;;0.90;;
28068;SDS011;15382;47.578;8.086;2023-05-10T09:47:48;2.40;;;0.98;;
28068;SDS011;15382;47.578;8.086;2023-05-10T09:57:50;4.43;;;0.60;;
28068;SDS011;15382;47.578;8.086;2023-05-10T10:08:00;3.83;;;0.65;;
28068;SDS011;15382;47.578;8.086;2023-05-10T10:18:05;1.25;;;0.50;;
28068;SDS011;15382;47.578;8.086;2023-05-10T10:28:26;2.65;;;0.43;;
28068;SDS011;15382;47.578;8.086;2023-05-10T10:48:49;3.22;;;0.70;;
28068;SDS011;15382;47.578;8.086;2023-05-10T10:59:08;3.67;;;0.70;;
28068;SDS011;15382;47.578;8.086;2023-05-10T11:09:10;4.43;;;0.70;;
28068;SDS011;15382;47.578;8.086;2023-05-10T11:19:14;5.60;;;0.80;;
28068;SDS011;15382;47.578;8.086;2023-05-10T11:29:16;2.20;;;0.93;;
28068;SDS011;15382;47.578;8.086;2023-05-10T11:39:17;2.13;;;0.70;;
28068;SDS011;15382;47.578;8.086;2023-05-10T11:49:18;3.60;;;0.60;;
28068;SDS011;15382;47.578;8.086;2023-05-10T11:59:20;2.10;;;0.60;;
28068;SDS011;15382;47.578;8.086;2023-05-10T12:09:21;2.50;;;0.60;;
28068;SDS011;15382;47.578;8.086;2023-05-10T12:19:22;0.43;;;0.40;;
28068;SDS011;15382;47.578;8.086;2023-05-10T12:29:23;4.67;;;0.80;;
28068;SDS011;15382;47.578;8.086;2023-05-10T12:39:24;0.80;;;0.70;;
28068;SDS011;15382;47.578;8.086;2023-05-10T12:49:25;3.30;;;0.60;;
28068;SDS011;15382;47.578;8.086;2023-05-10T12:59:25;0.60;;;0.40;;
28068;SDS011;15382;47.578;8.086;2023-05-10T13:09:26;4.03;;;0.70;;
28068;SDS011;15382;47.578;8.086;2023-05-10T13:19:29;3.00;;;0.68;;
28068;SDS011;15382;47.578;8.086;2023-05-10T13:29:30;2.27;;;0.50;;
28068;SDS011;15382;47.578;8.086;2023-05-10T13:39:31;6.73;;;0.83;;
28068;SDS011;15382;47.578;8.086;2023-05-10T13:49:34;0.65;;;0.32;;
28068;SDS011;15382;47.578;8.086;2023-05-10T13:59:35;0.50;;;0.13;;
28068;SDS011;15382;47.578;8.086;2023-05-10T14:09:36;1.50;;;0.40;;
28068;SDS011;15382;47.578;8.086;2023-05-10T14:19:36;1.37;;;0.30;;
28068;SDS011;15382;47.578;8.086;2023-05-10T14:29:37;3.17;;;0.37;;
28068;SDS011;15382;47.578;8.086;2023-05-10T14:39:38;3.23;;;0.30;;
28068;SDS011;15382;47.578;8.086;2023-05-10T14:49:39;1.60;;;0.30;;
28068;SDS011;15382;47.578;8.086;2023-05-10T14:59:40;1.10;;;0.43;;
28068;SDS011;15382;47.578;8.086;2023-05-10T15:09:41;2.07;;;0.30;;
28068;SDS011;15382;47.578;8.086;2023-05-10T15:19:42;0.30;;;0.20;;
28068;SDS011;15382;47.578;8.086;2023-05-10T15:29:43;0.27;;;0.20;;
28068;SDS011;15382;47.578;8.086;2023-05-10T15:39:44;1.37;;;0.43;;
28068;SDS011;15382;47.578;8.086;2023-05-10T15:49:44;1.53;;;0.40;;
28068;SDS011;15382;47.578;8.086;2023-05-10T15:59:45;0.83;;;0.20;;
28068;SDS011;15382;47.578;8.086;2023-05-10T16:09:46;2.43;;;0.43;;
28068;SDS011;15382;47.578;8.086;2023-05-10T16:19:48;1.35;;;0.50;;
28068;SDS011;15382;47.578;8.086;2023-05-10T16:29:49;0.67;;;0.40;;
28068;SDS011;15382;47.578;8.086;2023-05-10T16:39:50;0.77;;;0.40;;
28068;SDS011;15382;47.578;8.086;2023-05-10T16:49:51;2.10;;;0.37;;
28068;SDS011;15382;47.578;8.086;2023-05-10T16:59:51;2.30;;;0.37;;
28068;SDS011;15382;47.578;8.086;2023-05-10T17:09:52;1.23;;;0.47;;
28068;SDS011;15382;47.578;8.086;2023-05-10T17:19:53;3.17;;;0.50;;
28068;SDS011;15382;47.578;8.086;2023-05-10T17:29:55;0.57;;;0.40;;
28068;SDS011;15382;47.578;8.086;2023-05-10T17:39:56;3.10;;;0.30;;
28068;SDS011;15382;47.578;8.086;2023-05-10T17:49:57;0.20;;;0.20;;
28068;SDS011;15382;47.578;8.086;2023-05-10T17:59:58;1.80;;;0.40;;
28068;SDS011;15382;47.578;8.086;2023-05-10T18:09:59;1.47;;;0.80;;
28068;SDS011;15382;47.578;8.086;2023-05-10T18:20:00;0.50;;;0.40;;
28068;SDS011;15382;47.578;8.086;2023-05-10T18:30:01;1.85;;;0.60;;
28068;SDS011;15382;47.578;8.086;2023-05-10T18:40:02;1.07;;;0.40;;
28068;SDS011;15382;47.578;8.086;2023-05-10T18:50:04;2.38;;;0.57;;
28068;SDS011;15382;47.578;8.086;2023-05-10T19:00:08;1.50;;;0.52;;
28068;SDS011;15382;47.578;8.086;2023-05-10T19:10:11;2.45;;;0.70;;
28068;SDS011;15382;47.578;8.086;2023-05-10T19:20:15;1.10;;;0.40;;
28068;SDS011;15382;47.578;8.086;2023-05-10T19:30:16;3.27;;;0.53;;
28068;SDS011;15382;47.578;8.086;2023-05-10T19:40:17;2.07;;;1.20;;
28068;SDS011;15382;47.578;8.086;2023-05-10T19:50:17;1.17;;;0.50;;
28068;SDS011;15382;47.578;8.086;2023-05-10T20:00:18;1.03;;;0.30;;
28068;SDS011;15382;47.578;8.086;2023-05-10T20:10:20;2.73;;;0.30;;
28068;SDS011;15382;47.578;8.086;2023-05-10T20:20:21;0.65;;;0.30;;
28068;SDS011;15382;47.578;8.086;2023-05-10T20:30:22;2.65;;;0.40;;
28068;SDS011;15382;47.578;8.086;2023-05-10T20:40:23;1.23;;;0.67;;
28068;SDS011;15382;47.578;8.086;2023-05-10T20:50:24;0.87;;;0.50;;
28068;SDS011;15382;47.578;8.086;2023-05-10T21:00:25;0.97;;;0.57;;
28068;SDS011;15382;47.578;8.086;2023-05-10T21:10:26;0.90;;;0.50;;
28068;SDS011;15382;47.578;8.086;2023-05-10T21:30:28;0.57;;;0.30;;
28068;SDS011;15382;47.578;8.086;2023-05-10T21:40:29;3.27;;;0.60;;
28068;SDS011;15382;47.578;8.086;2023-05-10T21:50:30;1.73;;;1.03;;
28068;SDS011;15382;47.578;8.086;2023-05-10T22:00:30;0.40;;;0.40;;
28068;SDS011;15382;47.578;8.086;2023-05-10T22:10:31;1.03;;;0.50;;
28068;SDS011;15382;47.578;8.086;2023-05-10T22:20:32;0.60;;;0.60;;
28068;SDS011;15382;47.578;8.086;2023-05-10T22:30:33;1.50;;;0.60;;
28068;SDS011;15382;47.578;8.086;2023-05-10T22:40:34;1.90;;;0.80;;
28068;SDS011;15382;47.578;8.086;2023-05-10T22:50:35;1.40;;;0.50;;
28068;SDS011;15382;47.578;8.086;2023-05-10T23:00:36;3.60;;;0.80;;
28068;SDS011;15382;47.578;8.086;2023-05-10T23:10:37;2.75;;;0.50;;
28068;SDS011;15382;47.578;8.086;2023-05-10T23:20:40;2.87;;;0.90;;
28068;SDS011;15382;47.578;8.086;2023-05-10T23:30:41;2.40;;;0.77;;
28068;SDS011;15382;47.578;8.086;2023-05-10T23:40:42;1.20;;;0.53;;
28068;SDS011;15382;47.578;8.086;2023-05-10T23:50:47;3.25;;;0.68;;
